Time;durP1;ratioP1;P1;durP2;ratioP2;P2;SDS_P1;SDS_P2;PMS_P1;PMS_P2;Temp;Humidity;BMP_temperature;BMP_pressure;BME280_temperature;BME280_humidity;BME280_pressure;Samples;Min_cycle;Max_cycle;Signal;HPM_P1;HPM_P2
2021/06/13 00:02:05;;;;;;;2.65;1.60;;;;;;;30.15;34.19;97344.97;4950148;28;20035;-34
2021/06/13 00:04:31;;;;;;;2.67;1.50;;;;;;;30.16;34.22;97351.94;4951768;28;21015;-35
2021/06/13 00:06:57;;;;;;;1.73;1.50;;;;;;;30.15;34.19;97344.97;4949153;28;20604;-36
2021/06/13 00:09:22;;;;;;;2.30;1.60;;;;;;;30.14;34.39;97343.28;4946153;28;20023;-36
2021/06/13 00:11:48;;;;;;;2.28;1.52;;;;;;;30.15;34.25;97344.97;4952610;28;20305;-32
2021/06/13 00:14:14;;;;;;;2.63;1.38;;;;;;;30.15;34.45;97349.41;4955230;28;20526;-34
2021/06/13 00:16:39;;;;;;;2.60;1.90;;;;;;;30.15;34.20;97339.69;4952740;28;20586;-36
2021/06/13 00:19:05;;;;;;;1.77;1.48;;;;;;;30.16;34.32;97344.03;4952888;28;20035;-39
2021/06/13 00:21:30;;;;;;;2.88;1.58;;;;;;;30.14;34.26;97342.44;4946642;28;20309;-35
2021/06/13 00:23:55;;;;;;;2.92;1.60;;;;;;;30.15;34.47;97346.75;4951045;28;20033;-36
2021/06/13 00:26:21;;;;;;;2.40;1.65;;;;;;;30.16;34.35;97340.56;4942844;28;20275;-32
2021/06/13 00:28:46;;;;;;;1.60;1.50;;;;;;;30.15;34.63;97339.69;4953628;28;20031;-33
2021/06/13 00:31:12;;;;;;;2.47;1.70;;;;;;;30.15;34.45;97341.47;4947697;28;20829;-37
2021/06/13 00:33:37;;;;;;;2.72;1.70;;;;;;;30.16;34.66;97346.66;4951673;28;20140;-37
2021/06/13 00:36:03;;;;;;;2.85;1.67;;;;;;;30.14;34.32;97338.00;4946121;28;21174;-34
2021/06/13 00:38:28;;;;;;;2.38;1.77;;;;;;;30.14;34.51;97343.28;4941809;28;20026;-36
2021/06/13 00:40:54;;;;;;;2.03;1.83;;;;;;;30.15;34.42;97349.41;4956639;28;20034;-31
2021/06/13 00:43:19;;;;;;;2.10;1.50;;;;;;;30.15;34.52;97349.41;4952823;28;20037;-37
2021/06/13 00:45:44;;;;;;;1.70;1.50;;;;;;;30.15;34.37;97347.63;4942009;28;20034;-35
2021/06/13 00:48:10;;;;;;;1.85;1.50;;;;;;;30.15;34.32;97347.63;4951036;28;20032;-36
2021/06/13 00:50:55;;;;;;;1.95;1.30;;;;;;;30.14;34.39;97351.22;4954160;28;21190;-36
2021/06/13 00:53:21;;;;;;;1.95;1.35;;;;;;;30.15;34.50;97338.84;4954241;28;20050;-33
2021/06/13 00:55:47;;;;;;;2.67;1.60;;;;;;;30.15;34.39;97350.25;4954546;28;20035;-34
2021/06/13 00:58:12;;;;;;;1.70;1.27;;;;;;;30.15;34.39;97344.13;4953931;28;20027;-34
2021/06/13 01:00:38;;;;;;;5.07;1.48;;;;;;;30.16;34.41;97345.84;4950179;28;20164;-32
2021/06/13 01:03:04;;;;;;;3.22;1.55;;;;;;;30.16;34.65;97346.66;4945578;28;20057;-36
2021/06/13 01:05:31;;;;;;;1.92;1.50;;;;;;;30.15;34.33;97342.34;4964377;28;20547;-33
2021/06/13 01:08:02;;;;;;;2.58;1.60;;;;;;;30.15;34.60;97344.97;4948115;28;20027;-34
2021/06/13 01:10:40;;;;;;;;;;;;;;;30.16;34.71;97341.38;4958680;28;20034;-34
2021/06/13 01:13:14;;;;;;;1.48;1.35;;;;;;;30.16;34.57;97338.75;4943245;28;19918;-35
2021/06/13 01:15:42;;;;;;;2.35;1.40;;;;;;;30.16;34.70;97343.19;4957558;28;20042;-34
2021/06/13 01:18:32;;;;;;;3.33;1.50;;;;;;;30.15;34.49;97347.63;4943430;28;20358;-31
2021/06/13 01:21:09;;;;;;;1.90;1.70;;;;;;;30.14;34.73;97348.56;4938769;28;20027;-35
2021/06/13 01:23:49;;;;;;;1.77;1.38;;;;;;;30.15;34.49;97341.47;4953244;28;20035;-35
2021/06/13 01:26:40;;;;;;;4.53;2.28;;;;;;;30.14;34.50;97338.00;4955386;28;20439;-35
2021/06/13 01:29:08;;;;;;;2.38;1.50;;;;;;;30.14;34.69;97345.94;4951736;28;20426;-37
2021/06/13 01:31:33;;;;;;;3.13;1.58;;;;;;;30.15;34.79;97339.69;4953041;28;20051;-32
2021/06/13 01:34:00;;;;;;;2.03;1.60;;;;;;;30.14;34.75;97343.28;4951165;28;21078;-37
2021/06/13 01:36:26;;;;;;;2.05;1.73;;;;;;;30.15;34.72;97344.97;4957622;28;20038;-32
2021/06/13 01:38:51;;;;;;;2.10;1.75;;;;;;;30.14;34.56;97343.28;4949657;28;20023;-34
2021/06/13 01:41:20;;;;;;;2.40;1.35;;;;;;;30.15;34.56;97346.75;4983362;28;20492;-36
2021/06/13 01:43:45;;;;;;;2.72;1.48;;;;;;;30.14;34.54;97340.66;4954378;28;20850;-30
2021/06/13 01:46:11;;;;;;;1.77;1.40;;;;;;;30.15;34.40;97338.84;4958754;28;20050;-37
2021/06/13 01:48:38;;;;;;;4.45;2.10;;;;;;;30.15;34.50;97339.69;4953147;28;20023;-30
2021/06/13 01:51:03;;;;;;;1.98;1.60;;;;;;;30.15;34.68;97339.69;4953606;28;20138;-36
2021/06/13 01:53:29;;;;;;;2.63;1.50;;;;;;;30.13;34.72;97338.91;4940483;28;20644;-35
2021/06/13 01:55:55;;;;;;;3.80;1.70;;;;;;;30.14;34.79;97340.66;4956979;28;20037;-36
2021/06/13 01:58:20;;;;;;;2.03;1.55;;;;;;;30.15;34.63;97344.13;4938490;28;20617;-35
2021/06/13 02:00:46;;;;;;;2.00;1.38;;;;;;;30.15;34.56;97350.25;4959090;28;20721;-35
2021/06/13 02:03:12;;;;;;;1.88;1.55;;;;;;;30.15;34.36;97339.69;4952047;28;20034;-35
2021/06/13 02:05:37;;;;;;;3.13;1.65;;;;;;;30.15;34.62;97339.69;4940151;28;20054;-35
2021/06/13 02:08:03;;;;;;;1.40;1.30;;;;;;;30.15;34.74;97347.63;4978334;28;20053;-30
2021/06/13 02:10:28;;;;;;;1.67;1.48;;;;;;;30.15;34.52;97339.69;4952101;28;20035;-31
2021/06/13 02:12:55;;;;;;;1.85;1.63;;;;;;;30.14;34.56;97332.72;4931867;28;20026;-31
2021/06/13 02:15:23;;;;;;;3.30;1.65;;;;;;;30.15;34.47;97342.34;4940763;28;20027;-32
2021/06/13 02:17:48;;;;;;;1.63;1.40;;;;;;;30.15;34.49;97339.69;4941033;28;20035;-33
2021/06/13 02:20:14;;;;;;;1.77;1.30;;;;;;;30.16;34.70;97341.38;4986059;28;20038;-35
2021/06/13 02:22:40;;;;;;;3.28;1.55;;;;;;;30.16;34.81;97329.97;4941085;28;20202;-34
2021/06/13 02:25:06;;;;;;;2.65;1.70;;;;;;;30.15;34.83;97339.69;4958451;28;20023;-34
2021/06/13 02:27:31;;;;;;;1.90;1.65;;;;;;;30.13;34.79;97336.28;4941478;28;20101;-31
2021/06/13 02:29:59;;;;;;;2.05;1.35;;;;;;;30.15;34.78;97344.97;4937776;28;20034;-32
2021/06/13 02:32:25;;;;;;;2.80;1.40;;;;;;;30.15;34.60;97339.69;4950342;28;20128;-34
2021/06/13 02:34:50;;;;;;;1.40;1.30;;;;;;;30.12;34.89;97329.31;4945888;28;20047;-35
2021/06/13 02:37:16;;;;;;;1.85;1.50;;;;;;;30.14;34.47;97338.00;4949173;28;20026;-35
2021/06/13 02:39:41;;;;;;;1.88;1.55;;;;;;;30.14;34.74;97338.00;4949473;28;20034;-32
2021/06/13 02:42:07;;;;;;;2.25;1.58;;;;;;;30.14;34.50;97338.00;4946689;28;20046;-34
2021/06/13 02:44:32;;;;;;;4.10;1.42;;;;;;;30.14;34.54;97343.28;4950982;28;20050;-34
2021/06/13 02:46:58;;;;;;;2.67;1.50;;;;;;;30.14;34.53;97343.28;4951641;28;20039;-35
2021/06/13 02:49:23;;;;;;;2.05;1.50;;;;;;;30.14;34.53;97337.13;4947725;28;20027;-32
2021/06/13 02:51:57;;;;;;;1.70;1.30;;;;;;;30.14;34.63;97348.56;4952003;28;20072;-31
2021/06/13 02:54:22;;;;;;;3.65;1.48;;;;;;;30.14;34.95;97347.72;4955769;28;20026;-33
2021/06/13 02:56:55;;;;;;;2.58;1.52;;;;;;;30.14;34.89;97351.22;4940950;28;20065;-35
2021/06/13 02:59:49;;;;;;;2.05;1.40;;;;;;;30.13;34.58;97354.78;4955468;28;20141;-32
2021/06/13 03:02:18;;;;;;;1.60;1.40;;;;;;;30.13;34.81;97352.13;4940626;28;20165;-32
2021/06/13 03:04:43;;;;;;;1.80;1.58;;;;;;;30.13;34.65;97352.13;4986366;28;20042;-34
2021/06/13 03:07:10;;;;;;;3.20;2.00;;;;;;;30.13;34.61;97357.44;4958925;28;20031;-32
2021/06/13 03:09:35;;;;;;;3.03;1.85;;;;;;;30.13;34.68;97362.72;4943460;28;20702;-35
2021/06/13 03:12:01;;;;;;;2.40;1.50;;;;;;;30.12;34.58;97359.25;4957176;28;20031;-37
2021/06/13 03:14:29;;;;;;;2.30;1.83;;;;;;;30.13;34.68;97362.72;4941721;28;20027;-36
2021/06/13 03:16:54;;;;;;;1.83;1.60;;;;;;;30.13;34.95;97365.34;4937805;28;20106;-36
2021/06/13 03:19:19;;;;;;;2.65;1.48;;;;;;;30.13;34.93;97365.34;4935487;28;20030;-35
2021/06/13 03:21:46;;;;;;;1.75;1.45;;;;;;;30.13;34.64;97370.63;4944246;28;20027;-37
2021/06/13 03:24:12;;;;;;;2.47;1.80;;;;;;;30.14;35.02;97375.00;4954672;28;20037;-37
2021/06/13 03:26:37;;;;;;;4.65;1.40;;;;;;;30.15;34.89;97370.56;4941894;28;20034;-33
2021/06/13 03:29:03;;;;;;;2.60;1.80;;;;;;;30.14;34.77;97369.72;4985988;28;20038;-36
2021/06/13 03:31:28;;;;;;;1.63;1.50;;;;;;;30.14;34.75;97375.00;4946043;28;20034;-35
2021/06/13 03:33:53;;;;;;;4.13;1.75;;;;;;;30.14;35.01;97369.72;4941750;28;20056;-36
2021/06/13 03:36:19;;;;;;;4.70;1.67;;;;;;;30.14;34.90;97375.00;4942893;28;20031;-35
2021/06/13 03:38:45;;;;;;;2.22;1.50;;;;;;;30.15;34.64;97371.41;4952136;28;20113;-36
2021/06/13 03:41:13;;;;;;;2.72;1.80;;;;;;;30.13;34.93;97373.28;4951241;28;20737;-34
2021/06/13 03:43:38;;;;;;;2.78;1.50;;;;;;;30.13;35.02;97378.56;4944977;28;20042;-34
2021/06/13 03:46:04;;;;;;;1.58;1.48;;;;;;;30.12;34.84;97383.03;4961668;28;20693;-31
2021/06/13 03:48:29;;;;;;;3.17;1.50;;;;;;;30.14;34.95;97379.44;4949489;28;20053;-33
2021/06/13 03:50:55;;;;;;;5.60;1.80;;;;;;;30.12;34.97;97377.75;4987882;28;20034;-38
2021/06/13 03:53:21;;;;;;;2.17;1.60;;;;;;;30.13;34.81;97383.84;4944964;28;20042;-35
2021/06/13 03:55:46;;;;;;;2.20;1.52;;;;;;;30.13;34.68;97383.84;4961359;28;20022;-33
2021/06/13 03:58:12;;;;;;;1.88;1.40;;;;;;;30.13;34.78;97378.56;4943242;28;20198;-30
2021/06/13 04:00:37;;;;;;;1.65;1.48;;;;;;;30.13;34.96;97378.56;4953429;28;20051;-34
2021/06/13 04:03:03;;;;;;;2.30;1.60;;;;;;;30.09;34.86;97375.25;4958220;28;20023;-36
2021/06/13 04:05:28;;;;;;;2.83;1.58;;;;;;;30.12;34.82;97390.09;4984928;28;20474;-33
2021/06/13 04:07:54;;;;;;;3.60;1.40;;;;;;;30.12;34.94;97390.09;4960952;28;20038;-33
2021/06/13 04:10:22;;;;;;;3.40;1.48;;;;;;;30.14;34.74;97390.00;4953783;28;20046;-37
2021/06/13 04:12:48;;;;;;;1.63;1.52;;;;;;;30.14;34.98;97390.88;4938785;28;20138;-29
2021/06/13 04:15:14;;;;;;;1.30;1.20;;;;;;;30.13;34.74;97397.06;4951122;28;21752;-35
2021/06/13 04:17:39;;;;;;;1.50;1.23;;;;;;;30.14;34.75;97401.44;4948520;28;20023;-30
2021/06/13 04:20:06;;;;;;;1.65;1.40;;;;;;;30.13;34.74;97397.06;4956556;28;20026;-33
2021/06/13 04:22:31;;;;;;;1.50;1.20;;;;;;;30.13;34.86;97399.72;4987104;28;20034;-35
2021/06/13 04:24:57;;;;;;;1.73;1.40;;;;;;;30.14;34.89;97405.88;4957304;28;20873;-32
2021/06/13 04:27:23;;;;;;;1.27;1.17;;;;;;;30.13;35.05;97405.00;4977070;28;20038;-34
2021/06/13 04:29:49;;;;;;;2.17;1.60;;;;;;;30.14;34.95;97408.50;4945022;28;20431;-33
2021/06/13 04:32:15;;;;;;;2.78;1.77;;;;;;;30.14;35.05;97405.88;4939728;28;20042;-34
2021/06/13 04:34:40;;;;;;;3.10;1.50;;;;;;;30.13;34.89;97405.00;4960808;28;20034;-36
2021/06/13 04:37:06;;;;;;;2.67;1.70;;;;;;;30.13;34.77;97410.28;4944427;28;20120;-29
2021/06/13 04:39:32;;;;;;;7.00;1.90;;;;;;;30.13;34.83;97412.94;4936301;28;20105;-33
2021/06/13 04:41:57;;;;;;;3.15;1.70;;;;;;;30.13;34.51;97407.66;4941411;28;20042;-34
2021/06/13 04:44:23;;;;;;;7.72;1.85;;;;;;;30.14;34.73;97419.06;4971795;28;20081;-33
2021/06/13 04:46:48;;;;;;;4.93;1.73;;;;;;;30.11;34.73;97413.03;4952992;28;20653;-35
2021/06/13 04:49:13;;;;;;;2.80;1.75;;;;;;;30.13;34.82;97418.22;4946204;28;20614;-37
2021/06/13 04:51:39;;;;;;;6.50;2.30;;;;;;;30.12;33.84;97416.53;4947399;28;20035;-33
2021/06/13 04:54:06;;;;;;;5.32;2.70;;;;;;;30.08;32.08;97418.47;4946713;28;20274;-35
2021/06/13 04:56:54;;;;;;;6.43;3.03;;;;;;;29.99;30.60;97419.88;4944955;28;20038;-32
2021/06/13 04:59:19;;;;;;;8.30;2.97;;;;;;;29.91;30.09;97424.81;4941825;28;20026;-35
2021/06/13 05:01:45;;;;;;;9.75;3.13;;;;;;;29.81;29.65;97427.13;4935168;28;20047;-35
2021/06/13 05:04:10;;;;;;;7.95;3.58;;;;;;;29.67;29.19;97425.31;4935952;28;20038;-36
2021/06/13 05:06:36;;;;;;;8.73;3.53;;;;;;;29.55;29.14;97431.31;4975928;28;20042;-35
2021/06/13 05:09:01;;;;;;;7.78;3.17;;;;;;;29.44;29.43;97426.63;4952835;28;20030;-34
2021/06/13 05:11:27;;;;;;;8.82;3.60;;;;;;;29.28;29.27;97421.38;4950021;28;20125;-31
2021/06/13 05:13:52;;;;;;;9.57;3.88;;;;;;;29.20;29.50;97427.97;4946033;28;20234;-37
2021/06/13 05:16:18;;;;;;;7.57;3.80;;;;;;;29.07;29.47;97426.97;4944603;28;20061;-34
2021/06/13 05:18:43;;;;;;;8.77;4.05;;;;;;;28.95;29.72;97434.66;4944754;28;20054;-32
2021/06/13 05:21:09;;;;;;;7.75;3.60;;;;;;;28.83;29.77;97430.88;4944416;28;20030;-36
2021/06/13 05:23:34;;;;;;;9.93;3.70;;;;;;;28.72;29.78;97429.78;4947475;28;20022;-33
2021/06/13 05:26:02;;;;;;;7.13;3.85;;;;;;;28.60;29.64;97433.94;4945152;28;20742;-36
2021/06/13 05:28:28;;;;;;;10.10;3.72;;;;;;;28.48;29.29;97438.06;4951915;28;20027;-36
2021/06/13 05:30:55;;;;;;;8.70;3.53;;;;;;;28.36;28.82;97443.09;4942886;28;20047;-32
2021/06/13 05:33:20;;;;;;;9.77;3.70;;;;;;;28.24;28.85;97444.56;4943589;28;20794;-33
2021/06/13 05:35:47;;;;;;;10.27;3.40;;;;;;;28.10;29.04;97444.47;4944617;28;20031;-33
2021/06/13 05:38:13;;;;;;;6.78;3.38;;;;;;;27.97;29.03;97452.13;4943699;28;20915;-32
2021/06/13 05:40:38;;;;;;;8.27;3.30;;;;;;;27.83;28.99;97448.44;4953143;28;20039;-32
2021/06/13 05:43:05;;;;;;;9.35;3.42;;;;;;;27.71;29.17;97451.69;4975594;28;20086;-35
2021/06/13 05:45:31;;;;;;;8.38;3.70;;;;;;;27.57;29.11;97455.81;4952289;28;20067;-35
2021/06/13 05:47:56;;;;;;;8.85;3.47;;;;;;;27.46;29.62;97460.78;4947550;28;20620;-36
2021/06/13 05:50:22;;;;;;;10.05;3.58;;;;;;;27.36;29.88;97468.28;4938412;28;20513;-35
2021/06/13 05:52:47;;;;;;;8.90;3.47;;;;;;;27.28;30.37;97466.03;4945664;28;20030;-31
2021/06/13 05:55:13;;;;;;;9.75;3.80;;;;;;;27.23;30.25;97468.03;4942674;28;20564;-37
2021/06/13 05:57:38;;;;;;;7.45;3.60;;;;;;;27.18;30.29;97465.63;4945101;28;21621;-36
2021/06/13 06:00:08;;;;;;;8.55;3.53;;;;;;;27.15;30.73;97471.00;4943921;28;20122;-35
2021/06/13 06:02:34;;;;;;;11.52;3.38;;;;;;;27.12;30.88;97466.75;4936542;28;20055;-32
2021/06/13 06:04:59;;;;;;;10.65;3.20;;;;;;;27.13;30.83;97467.63;4940122;28;20309;-36
2021/06/13 06:07:25;;;;;;;17.20;3.83;;;;;;;27.15;31.16;97475.44;4938003;28;20556;-37
2021/06/13 06:09:50;;;;;;;14.20;4.72;;;;;;;27.17;31.10;97469.19;4938557;28;20042;-35
2021/06/13 06:12:16;;;;;;;14.85;3.58;;;;;;;27.19;30.72;97466.47;4937771;28;20035;-36
2021/06/13 06:14:41;;;;;;;8.75;3.80;;;;;;;27.21;30.44;97469.88;4938420;28;20089;-34
2021/06/13 06:17:07;;;;;;;9.82;3.40;;;;;;;27.21;30.42;97475.13;4940745;28;20031;-36
2021/06/13 06:19:32;;;;;;;13.02;3.60;;;;;;;27.22;30.46;97471.56;4936246;28;20030;-31
2021/06/13 06:21:57;;;;;;;10.13;4.32;;;;;;;27.20;30.15;97478.69;4936267;28;20255;-34
2021/06/13 06:24:23;;;;;;;10.88;5.53;;;;;;;27.19;30.27;97472.56;4954000;28;20038;-34
2021/06/13 06:26:52;;;;;;;10.15;4.28;;;;;;;27.18;30.02;97470.00;4941207;28;21011;-35
2021/06/13 06:29:17;;;;;;;11.32;3.70;;;;;;;27.16;29.89;97477.16;4941895;28;20027;-36
2021/06/13 06:31:42;;;;;;;9.13;3.55;;;;;;;27.12;29.89;97479.91;4948566;28;20388;-36
2021/06/13 06:34:08;;;;;;;10.18;4.35;;;;;;;27.10;29.91;97479.16;4950484;28;20068;-34
2021/06/13 06:36:33;;;;;;;14.68;4.07;;;;;;;27.09;29.89;97487.97;4944440;28;20603;-31
2021/06/13 06:38:59;;;;;;;6.00;3.40;;;;;;;27.08;30.01;97480.97;4974909;28;20154;-35
2021/06/13 06:41:24;;;;;;;10.50;4.13;;;;;;;27.07;29.99;97494.19;4941322;28;20034;-36
2021/06/13 06:43:51;;;;;;;7.45;3.15;;;;;;;27.05;29.89;97489.03;4933384;28;20552;-33
2021/06/13 06:46:17;;;;;;;13.15;7.18;;;;;;;27.04;29.71;97492.56;4940920;28;20042;-32
2021/06/13 06:48:45;;;;;;;10.20;3.95;;;;;;;27.00;29.80;97494.50;4942662;28;20714;-37
2021/06/13 06:51:11;;;;;;;9.88;3.47;;;;;;;26.98;29.78;97495.50;4942027;28;20096;-34
2021/06/13 06:53:36;;;;;;;11.32;3.53;;;;;;;27.00;30.03;97494.50;4948851;28;20453;-32
2021/06/13 06:56:02;;;;;;;9.73;3.17;;;;;;;27.05;30.22;97501.34;4941610;28;20031;-32
2021/06/13 06:58:27;;;;;;;10.52;4.00;;;;;;;27.11;30.32;97501.88;4942719;28;20026;-33
2021/06/13 07:00:52;;;;;;;9.15;3.33;;;;;;;27.18;30.47;97507.72;4939346;28;20042;-32
2021/06/13 07:03:18;;;;;;;15.45;4.05;;;;;;;27.26;30.67;97517.88;4942160;28;20132;-34
2021/06/13 07:05:43;;;;;;;17.55;4.35;;;;;;;27.33;30.71;97511.41;4943966;28;20027;-36
2021/06/13 07:08:09;;;;;;;22.40;5.88;;;;;;;27.42;30.69;97522.41;4941503;28;20356;-32
2021/06/13 07:10:34;;;;;;;18.70;5.97;;;;;;;27.49;30.88;97521.16;4941944;28;20600;-33
2021/06/13 07:13:00;;;;;;;23.75;6.22;;;;;;;27.57;30.92;97518.19;4953018;28;20403;-33
2021/06/13 07:15:25;;;;;;;27.65;6.25;;;;;;;27.62;30.85;97519.66;4952835;28;20045;-37
2021/06/13 07:17:53;;;;;;;16.33;5.40;;;;;;;27.69;31.00;97529.91;4940356;28;20034;-32
2021/06/13 07:20:19;;;;;;;20.00;5.57;;;;;;;27.75;31.08;97522.56;4951894;28;20035;-34
2021/06/13 07:22:44;;;;;;;19.52;5.00;;;;;;;27.82;30.99;97532.78;4946415;28;20037;-32
2021/06/13 07:25:10;;;;;;;17.38;5.38;;;;;;;27.86;31.04;97527.28;4955267;28;20034;-32
2021/06/13 07:27:36;;;;;;;16.60;5.13;;;;;;;27.91;31.00;97537.59;4951639;28;20033;-32
2021/06/13 07:30:01;;;;;;;17.50;5.40;;;;;;;27.97;31.06;97520.63;4954485;28;20109;-35
2021/06/13 07:32:26;;;;;;;19.30;4.82;;;;;;;28.00;31.03;97528.38;4949908;28;20039;-37
2021/06/13 07:34:52;;;;;;;16.92;4.90;;;;;;;28.05;31.02;97534.25;4956926;28;20077;-32
2021/06/13 07:37:17;;;;;;;15.00;5.18;;;;;;;28.08;30.92;97528.84;4954395;28;20662;-31
2021/06/13 07:39:43;;;;;;;16.65;5.03;;;;;;;28.12;31.18;97525.13;4952635;28;20046;-37
2021/06/13 07:42:08;;;;;;;12.25;4.97;;;;;;;28.16;31.31;97531.09;4950722;28;20031;-34
2021/06/13 07:44:34;;;;;;;16.58;4.93;;;;;;;28.20;31.20;97537.03;4959690;28;20035;-38
2021/06/13 07:46:59;;;;;;;11.30;4.57;;;;;;;28.23;31.31;97534.25;4952960;28;20023;-38
2021/06/13 07:49:25;;;;;;;15.60;5.10;;;;;;;28.25;31.12;97530.63;4957397;28;20611;-33
2021/06/13 07:51:50;;;;;;;11.23;4.53;;;;;;;28.24;31.11;97528.03;4956070;28;20034;-32
2021/06/13 07:54:16;;;;;;;13.93;4.55;;;;;;;28.31;31.32;97534.75;4956651;28;20034;-34
2021/06/13 07:56:41;;;;;;;12.52;4.22;;;;;;;28.34;31.28;97534.56;4956386;28;20930;-32
2021/06/13 07:59:07;;;;;;;13.57;4.07;;;;;;;28.37;31.42;97544.13;4962474;28;20056;-35
2021/06/13 08:01:33;;;;;;;11.55;4.28;;;;;;;28.40;31.29;97543.94;4951297;28;20062;-35
2021/06/13 08:03:58;;;;;;;10.75;4.03;;;;;;;28.40;31.50;97539.53;4977541;28;20026;-37
2021/06/13 08:06:24;;;;;;;11.63;4.13;;;;;;;28.42;31.58;97540.28;4974385;28;20034;-35
2021/06/13 08:08:49;;;;;;;11.82;4.85;;;;;;;28.45;31.20;97541.91;4956229;28;20109;-33
2021/06/13 08:11:15;;;;;;;10.00;3.70;;;;;;;28.47;31.63;97545.34;4957372;28;20065;-35
2021/06/13 08:13:40;;;;;;;9.15;3.72;;;;;;;28.48;31.51;97535.63;4955855;28;20031;-33
2021/06/13 08:16:06;;;;;;;8.30;3.40;;;;;;;28.52;31.64;97534.53;4958261;28;20061;-36
2021/06/13 08:18:31;;;;;;;11.73;3.80;;;;;;;28.52;31.60;97532.75;4989910;28;20074;-34
2021/06/13 08:20:57;;;;;;;8.63;3.63;;;;;;;28.55;31.51;97537.00;4957163;28;20022;-37
2021/06/13 08:23:22;;;;;;;7.65;3.45;;;;;;;28.55;31.70;97540.50;4954915;28;20042;-32
2021/06/13 08:25:49;;;;;;;8.57;3.58;;;;;;;28.59;31.68;97533.28;4955373;28;20058;-31
2021/06/13 08:28:15;;;;;;;7.40;3.10;;;;;;;28.56;31.64;97525.53;4953760;28;20726;-34
2021/06/13 08:30:40;;;;;;;10.45;3.42;;;;;;;28.61;31.81;97531.44;4957482;28;20039;-34
2021/06/13 08:33:06;;;;;;;8.63;3.17;;;;;;;28.63;31.58;97528.69;4957785;28;20498;-35
2021/06/13 08:35:31;;;;;;;6.43;3.17;;;;;;;28.64;31.87;97530.41;4959310;28;20500;-34
2021/06/13 08:37:59;;;;;;;6.28;2.92;;;;;;;28.66;31.75;97534.66;4961039;28;20023;-34
2021/06/13 08:40:24;;;;;;;6.53;3.20;;;;;;;28.67;31.80;97533.72;4954360;28;20038;-33
2021/06/13 08:42:50;;;;;;;8.32;3.22;;;;;;;28.68;31.83;97527.50;4957014;28;20090;-28
2021/06/13 08:45:15;;;;;;;10.27;3.38;;;;;;;28.69;31.98;97529.22;4955304;28;20041;-34
2021/06/13 08:47:41;;;;;;;7.45;3.20;;;;;;;28.71;31.75;97529.13;4956430;28;20948;-31
2021/06/13 08:50:07;;;;;;;8.52;3.13;;;;;;;28.72;31.79;97527.34;4943126;28;20026;-35
2021/06/13 08:52:33;;;;;;;6.53;2.90;;;;;;;28.73;31.63;97534.31;4952301;28;20035;-37
2021/06/13 08:55:01;;;;;;;8.45;3.00;;;;;;;28.75;31.72;97532.47;4967930;28;20086;-31
2021/06/13 08:57:26;;;;;;;5.50;2.92;;;;;;;28.76;31.92;97535.00;4949394;28;20034;-32
2021/06/13 08:59:52;;;;;;;6.75;2.83;;;;;;;28.78;31.81;97529.66;4967005;28;20689;-37
2021/06/13 09:02:17;;;;;;;5.40;2.85;;;;;;;28.79;31.81;97534.00;4985938;28;20158;-32
2021/06/13 09:04:43;;;;;;;6.90;2.42;;;;;;;28.80;31.97;97543.63;4943590;28;20035;-35
2021/06/13 09:07:17;;;;;;;6.43;2.95;;;;;;;28.82;31.94;97544.38;4954032;28;20041;-36
2021/06/13 09:09:43;;;;;;;7.45;2.45;;;;;;;28.82;31.95;97539.97;4943731;28;20128;-34
2021/06/13 09:12:08;;;;;;;6.60;2.60;;;;;;;28.83;32.06;97535.53;4954907;28;20030;-34
2021/06/13 09:14:41;;;;;;;5.97;2.78;;;;;;;28.84;31.96;97537.25;4949351;28;20026;-33
2021/06/13 09:17:11;;;;;;;5.38;2.50;;;;;;;28.82;32.06;97525.91;4955657;28;20030;-32
2021/06/13 09:19:37;;;;;;;5.68;2.90;;;;;;;28.86;32.24;97532.72;4955964;28;20093;-34
2021/06/13 09:22:10;;;;;;;5.45;2.60;;;;;;;28.87;32.14;97533.59;4954164;28;20030;-30
2021/06/13 09:24:35;;;;;;;4.78;2.33;;;;;;;28.89;32.23;97540.53;4955919;28;20122;-35
2021/06/13 09:27:07;;;;;;;6.15;2.60;;;;;;;28.89;31.98;97535.25;4956363;28;20437;-35
2021/06/13 09:29:52;;;;;;;5.80;2.50;;;;;;;28.91;32.20;97532.53;4988618;28;20613;-31
2021/06/13 09:32:18;;;;;;;5.18;2.45;;;;;;;28.90;32.09;97531.66;4940845;28;20039;-37
2021/06/13 09:34:46;;;;;;;6.75;2.30;;;;;;;28.93;32.16;97543.84;4957004;28;20035;-34
2021/06/13 09:37:13;;;;;;;4.07;1.83;;;;;;;28.93;32.16;97534.16;4956867;28;20027;-36
2021/06/13 09:39:38;;;;;;;8.02;2.60;;;;;;;28.95;32.09;97536.69;4953957;28;20686;-34
2021/06/13 09:42:08;;;;;;;4.60;2.15;;;;;;;28.95;32.37;97534.91;4956009;28;20100;-34
2021/06/13 09:44:35;;;;;;;4.28;2.13;;;;;;;28.97;32.14;97537.47;4959006;28;20027;-33
2021/06/13 09:47:03;;;;;;;4.78;1.98;;;;;;;28.98;32.26;97540.97;4959602;28;20043;-36
2021/06/13 09:49:28;;;;;;;5.03;2.17;;;;;;;28.98;32.25;97536.50;4947700;28;20885;-34
2021/06/13 09:51:54;;;;;;;4.13;2.38;;;;;;;29.01;32.34;97543.41;4944596;28;20041;-35
2021/06/13 09:54:21;;;;;;;5.20;2.40;;;;;;;29.02;32.23;97550.41;4957463;28;20435;-33
2021/06/13 09:56:46;;;;;;;3.33;1.95;;;;;;;29.01;32.26;97546.91;4952172;28;20025;-34
2021/06/13 09:59:15;;;;;;;3.15;1.80;;;;;;;29.02;32.20;97545.13;4952995;28;20030;-35
2021/06/13 10:01:45;;;;;;;6.20;2.25;;;;;;;29.03;32.38;97549.47;4950909;28;20046;-33
2021/06/13 10:04:25;;;;;;;3.83;2.13;;;;;;;29.03;32.51;97547.66;4954574;28;20027;-36
2021/06/13 10:06:53;;;;;;;3.55;1.88;;;;;;;29.05;32.56;97547.59;4956659;28;20117;-30
2021/06/13 10:09:19;;;;;;;5.28;2.20;;;;;;;29.06;32.36;97541.41;4952690;28;20499;-36
2021/06/13 10:11:45;;;;;;;3.40;1.98;;;;;;;29.06;32.42;97538.75;4952246;28;20029;-37
2021/06/13 10:14:16;;;;;;;3.58;1.90;;;;;;;29.07;32.52;97537.81;4956539;28;20038;-34
2021/06/13 10:16:45;;;;;;;4.60;1.90;;;;;;;29.08;32.45;97544.78;4955184;28;20072;-35
2021/06/13 10:19:15;;;;;;;3.70;1.88;;;;;;;29.10;32.51;97547.34;4946277;28;20035;-35
2021/06/13 10:21:45;;;;;;;2.60;1.88;;;;;;;29.11;32.53;97549.91;4946702;28;20632;-33
2021/06/13 10:24:25;;;;;;;3.33;2.00;;;;;;;29.12;32.64;97550.75;4950094;28;20062;-33
2021/06/13 10:26:51;;;;;;;3.55;1.98;;;;;;;29.13;32.51;97552.47;4954231;28;20425;-31
2021/06/13 10:29:17;;;;;;;4.93;1.73;;;;;;;29.13;32.44;97550.66;4952390;28;20023;-36
2021/06/13 10:31:44;;;;;;;3.20;1.75;;;;;;;29.13;32.53;97548.03;4951085;28;20543;-30
2021/06/13 10:34:10;;;;;;;3.25;1.63;;;;;;;29.14;32.55;97543.59;4967012;28;20039;-34
2021/06/13 10:36:37;;;;;;;4.00;1.90;;;;;;;29.15;32.56;97540.88;4953731;28;20034;-32
2021/06/13 10:39:04;;;;;;;2.80;1.88;;;;;;;29.15;32.60;97540.88;4960146;28;20035;-35
2021/06/13 10:41:30;;;;;;;3.97;1.95;;;;;;;29.15;32.60;97545.31;4954364;28;20731;-30
2021/06/13 10:44:04;;;;;;;3.05;1.60;;;;;;;29.17;32.84;97544.28;4942964;28;20038;-35
2021/06/13 10:46:30;;;;;;;4.13;1.90;;;;;;;29.17;32.56;97539.00;4956862;28;20783;-32
2021/06/13 10:48:58;;;;;;;2.67;1.75;;;;;;;29.18;32.57;97540.69;4942499;28;20049;-32
2021/06/13 10:51:38;;;;;;;3.10;1.80;;;;;;;29.20;32.82;97538.84;4954481;28;20049;-33
2021/06/13 10:54:22;;;;;;;3.05;1.75;;;;;;;29.20;32.84;97536.19;4950037;28;20034;-34
2021/06/13 10:56:49;;;;;;;3.42;1.67;;;;;;;29.22;32.73;97536.13;4956131;28;20406;-32
2021/06/13 10:59:17;;;;;;;4.07;1.58;;;;;;;29.24;32.82;97541.28;4975161;28;20042;-32
2021/06/13 11:02:11;;;;;;;3.15;1.40;;;;;;;29.25;32.54;97529.81;4956920;28;20158;-32
2021/06/13 11:04:55;;;;;;;3.00;1.60;;;;;;;29.25;32.79;97530.66;4954332;28;20077;-30
2021/06/13 11:07:29;;;;;;;3.38;1.80;;;;;;;29.26;32.85;97536.78;4947042;28;21005;-35
2021/06/13 11:12:51;;;;;;;2.58;1.50;;;;;;;29.28;32.74;97534.91;4952954;28;20039;-30
2021/06/13 11:15:42;;;;;;;2.65;1.42;;;;;;;29.29;32.72;97528.72;4957559;28;20023;-35
2021/06/13 11:18:08;;;;;;;2.50;1.45;;;;;;;29.29;32.72;97526.06;4952312;28;20908;-33
2021/06/13 11:20:46;;;;;;;2.92;1.50;;;;;;;29.31;32.72;97529.47;4939366;28;20035;-35
2021/06/13 11:23:21;;;;;;;2.42;1.50;;;;;;;29.32;32.80;97533.78;4954409;28;20034;-32
2021/06/13 11:25:46;;;;;;;2.15;1.40;;;;;;;29.33;32.78;97528.44;4957169;28;20544;-36
2021/06/13 11:28:28;;;;;;;3.35;1.27;;;;;;;29.33;32.82;97528.44;4956036;28;20029;-35
2021/06/13 11:31:00;;;;;;;;;;;;;;;29.35;32.92;97538.91;4959419;28;20038;-33
2021/06/13 11:33:35;;;;;;;3.50;1.58;;;;;;;29.35;32.74;97525.72;4986048;28;20626;-34
2021/06/13 11:36:01;;;;;;;2.92;1.40;;;;;;;29.36;32.73;97537.97;4954361;28;20803;-30